createdAt,value
2017-11-24T00:00:50.518Z,1000.4
2017-11-24T00:01:52.050Z,1000.4
2017-11-24T00:02:53.719Z,1000.4
2017-11-24T00:03:55.190Z,1000.3
2017-11-24T00:04:56.865Z,1000.3
2017-11-24T00:05:58.377Z,1000.3
2017-11-24T00:07:00.080Z,1000.3
2017-11-24T00:08:01.635Z,1000.3
2017-11-24T00:09:03.208Z,1000.3
2017-11-24T00:10:04.720Z,1000.2
2017-11-24T00:11:06.319Z,1000.2
2017-11-24T00:12:07.814Z,1000.2
2017-11-24T00:13:09.519Z,1000.2
2017-11-24T00:14:11.120Z,1000.2
2017-11-24T00:15:12.798Z,1000.1
2017-11-24T00:16:14.665Z,1000.1
2017-11-24T00:17:16.319Z,1000.1
2017-11-24T00:18:17.827Z,1000.1
2017-11-24T00:19:20.540Z,1000.1
2017-11-24T00:20:22.107Z,1000.1
2017-11-24T00:21:23.775Z,1000.1
2017-11-24T00:22:25.297Z,1000.1
2017-11-24T00:23:26.926Z,1000.1
2017-11-24T00:24:28.425Z,1000.1
2017-11-24T00:25:31.100Z,1000.1
2017-11-24T00:26:32.577Z,1000.1
2017-11-24T00:27:34.319Z,1000.2
2017-11-24T00:28:35.841Z,1000.2
2017-11-24T00:29:37.519Z,1000.2
2017-11-24T00:30:39.117Z,1000.3
2017-11-24T00:31:40.758Z,1000.2
2017-11-24T00:32:42.368Z,1000.2
2017-11-24T00:33:44.183Z,1000.2
2017-11-24T00:34:45.789Z,1000.2
2017-11-24T00:35:47.363Z,1000.1
2017-11-24T00:36:48.912Z,1000.1
2017-11-24T00:37:50.500Z,1000.2
2017-11-24T00:38:52.009Z,1000.1
2017-11-24T00:39:54.665Z,1000.2
2017-11-24T00:40:56.198Z,1000.2
2017-11-24T00:41:57.793Z,1000.2
2017-11-24T00:42:59.379Z,1000.2
2017-11-24T00:44:01.035Z,1000.2
2017-11-24T00:45:02.605Z,1000.2
2017-11-24T00:46:04.272Z,1000.2
2017-11-24T00:47:06.029Z,1000.2
2017-11-24T00:48:07.670Z,1000.2
2017-11-24T00:49:09.441Z,1000.2
2017-11-24T00:50:11.079Z,1000.3
2017-11-24T00:51:12.644Z,1000.2
2017-11-24T00:52:14.307Z,1000.2
2017-11-24T00:53:15.922Z,1000.2
2017-11-24T00:54:17.523Z,1000.3
2017-11-24T00:55:19.141Z,1000.3
2017-11-24T00:56:20.702Z,1000.2
2017-11-24T00:57:22.244Z,1000.2
2017-11-24T00:58:23.940Z,1000.2
2017-11-24T00:59:25.486Z,1000.1
2017-11-24T01:00:27.076Z,1000.2
2017-11-24T01:01:28.675Z,1000.2
2017-11-24T01:02:30.253Z,1000.2
2017-11-24T01:03:31.748Z,1000.3
2017-11-24T01:04:33.326Z,1000.3
2017-11-24T01:05:34.848Z,1000.3
2017-11-24T01:06:36.409Z,1000.2
2017-11-24T01:07:37.933Z,1000.2
2017-11-24T01:08:39.487Z,1000.2
2017-11-24T01:09:41.012Z,1000.1
2017-11-24T01:10:42.571Z,1000.1
2017-11-24T01:11:44.123Z,1000.1
2017-11-24T01:12:45.681Z,1000.1
2017-11-24T01:13:47.217Z,1000.1
2017-11-24T01:14:48.809Z,1000.1
2017-11-24T01:15:50.401Z,1000.1
2017-11-24T01:16:51.926Z,1000.1
2017-11-24T01:17:53.486Z,1000.1
2017-11-24T01:18:56.107Z,1000.1
2017-11-24T01:19:57.607Z,1000.1
2017-11-24T01:20:59.246Z,1000.1
2017-11-24T01:22:00.740Z,1000.1
2017-11-24T01:23:18.001Z,1000.1
2017-11-24T01:24:19.471Z,1000.1
2017-11-24T01:25:21.069Z,1000.1
2017-11-24T01:26:22.584Z,1000.1
2017-11-24T01:27:24.173Z,1000.1
2017-11-24T01:28:25.674Z,1000.1
2017-11-24T01:29:27.302Z,1000.1
2017-11-24T01:30:28.825Z,1000.1
2017-11-24T01:31:30.728Z,1000.1
2017-11-24T01:32:32.205Z,1000.1
2017-11-24T01:33:33.902Z,1000.2
2017-11-24T01:34:35.462Z,1000.2
2017-11-24T01:35:37.086Z,1000.2
2017-11-24T01:36:38.595Z,1000.2
2017-11-24T01:37:40.274Z,1000.2
2017-11-24T01:38:41.815Z,1000.2
2017-11-24T01:39:43.414Z,1000.3
2017-11-24T01:40:44.961Z,1000.3
2017-11-24T01:41:46.585Z,1000.2
2017-11-24T01:42:48.114Z,1000.1
2017-11-24T01:43:49.678Z,1000.1
2017-11-24T01:44:51.237Z,1000.1
2017-11-24T01:45:52.861Z,1000.1
2017-11-24T01:46:54.487Z,1000.2
2017-11-24T01:47:56.019Z,1000.1
2017-11-24T01:48:57.519Z,1000.1
2017-11-24T01:49:59.178Z,1000.1
2017-11-24T01:51:00.730Z,1000.0
2017-11-24T01:52:02.362Z,1000.0
2017-11-24T01:53:03.882Z,1000.1
2017-11-24T01:54:05.532Z,1000.0
2017-11-24T01:55:07.073Z,1000.0
2017-11-24T01:56:08.725Z,1000.0
2017-11-24T01:57:10.284Z,1000.0
2017-11-24T01:58:11.886Z,1000.0
2017-11-24T01:59:13.471Z,999.9
2017-11-24T02:00:15.125Z,999.9
2017-11-24T02:01:16.695Z,1000.1
2017-11-24T02:02:29.065Z,1000.0
2017-11-24T02:03:30.642Z,999.8
2017-11-24T02:04:32.245Z,999.9
2017-11-24T02:05:33.823Z,999.9
2017-11-24T02:06:35.375Z,999.9
2017-11-24T02:07:36.903Z,999.9
2017-11-24T02:08:38.453Z,999.8
2017-11-24T02:09:39.993Z,999.8
2017-11-24T02:10:41.532Z,999.8
2017-11-24T02:11:43.036Z,999.8
2017-11-24T02:12:44.656Z,999.8
2017-11-24T02:13:46.184Z,999.7
2017-11-24T02:14:47.739Z,999.8
2017-11-24T02:15:49.350Z,999.7
2017-11-24T02:16:50.925Z,999.7
2017-11-24T02:17:52.475Z,999.8
2017-11-24T02:18:54.183Z,999.8
2017-11-24T02:19:55.681Z,999.7
2017-11-24T02:20:57.328Z,999.7
2017-11-24T02:21:58.943Z,999.7
2017-11-24T02:23:00.587Z,999.7
2017-11-24T02:24:02.122Z,999.7
2017-11-24T02:25:03.743Z,999.6
2017-11-24T02:26:05.290Z,999.6
2017-11-24T02:27:06.888Z,999.6
2017-11-24T02:28:08.545Z,999.6
2017-11-24T02:29:10.140Z,999.6
2017-11-24T02:30:11.680Z,999.6
2017-11-24T02:31:13.257Z,999.6
2017-11-24T02:32:14.788Z,999.6
2017-11-24T02:33:16.333Z,999.7
2017-11-24T02:34:17.931Z,999.7
2017-11-24T02:35:19.498Z,999.6
2017-11-24T02:36:21.111Z,999.7
2017-11-24T02:37:22.706Z,999.7
2017-11-24T02:38:24.359Z,999.7
2017-11-24T02:39:26.064Z,999.6
2017-11-24T02:40:27.611Z,999.6
2017-11-24T02:41:29.213Z,999.6
2017-11-24T02:42:30.713Z,999.6
2017-11-24T02:43:32.337Z,999.6
2017-11-24T02:44:33.874Z,999.5
2017-11-24T02:45:35.429Z,999.5
2017-11-24T02:46:36.947Z,999.6
2017-11-24T02:47:38.470Z,999.6
2017-11-24T02:48:39.999Z,999.6
2017-11-24T02:49:41.609Z,999.5
2017-11-24T02:50:43.201Z,999.5
2017-11-24T02:51:44.762Z,999.6
2017-11-24T02:52:46.359Z,999.7
2017-11-24T02:53:47.986Z,999.6
2017-11-24T02:54:49.599Z,999.6
2017-11-24T02:55:51.130Z,999.6
2017-11-24T02:56:52.651Z,999.6
2017-11-24T02:57:54.232Z,999.6
2017-11-24T02:58:55.784Z,999.6
2017-11-24T02:59:57.327Z,999.6
2017-11-24T03:00:58.881Z,999.6
2017-11-24T03:02:00.536Z,999.5
2017-11-24T03:03:02.122Z,999.6
2017-11-24T03:04:03.775Z,999.6
2017-11-24T03:05:05.336Z,999.6
2017-11-24T03:06:07.010Z,999.6
2017-11-24T03:07:08.539Z,999.6
2017-11-24T03:08:10.184Z,999.6
2017-11-24T03:09:11.692Z,999.6
2017-11-24T03:10:13.438Z,999.5
2017-11-24T03:11:14.948Z,999.5
2017-11-24T03:12:16.563Z,999.5
2017-11-24T03:13:18.184Z,999.5
2017-11-24T03:14:19.765Z,999.5
2017-11-24T03:15:21.271Z,999.4
2017-11-24T03:16:22.908Z,999.4
2017-11-24T03:17:24.450Z,999.4
2017-11-24T03:18:26.084Z,999.4
2017-11-24T03:19:27.651Z,999.4
2017-11-24T03:20:29.266Z,999.4
2017-11-24T03:21:30.774Z,999.3
2017-11-24T03:22:32.450Z,999.3
2017-11-24T03:23:33.918Z,999.3
2017-11-24T03:24:35.483Z,999.3
2017-11-24T03:25:37.017Z,999.2
2017-11-24T03:26:38.564Z,999.3
2017-11-24T03:27:40.175Z,999.2
2017-11-24T03:28:41.749Z,999.3
2017-11-24T03:29:43.270Z,999.2
2017-11-24T03:30:46.862Z,999.3
2017-11-24T03:31:48.307Z,999.3
2017-11-24T03:32:50.880Z,999.3
2017-11-24T03:33:52.355Z,999.3
2017-11-24T03:34:53.948Z,999.3
2017-11-24T03:35:55.481Z,999.3
2017-11-24T03:36:57.071Z,999.3
2017-11-24T03:37:58.690Z,999.3
2017-11-24T03:39:00.291Z,999.3
2017-11-24T03:40:01.826Z,999.3
2017-11-24T03:41:03.465Z,999.3
2017-11-24T03:42:04.976Z,999.3
2017-11-24T03:43:06.512Z,999.2
2017-11-24T03:44:08.089Z,999.2
2017-11-24T03:45:09.700Z,999.2
2017-11-24T03:46:11.219Z,999.2
2017-11-24T03:47:14.832Z,999.2
2017-11-24T03:48:16.357Z,999.2
2017-11-24T03:49:17.948Z,999.2
2017-11-24T03:50:19.497Z,999.2
2017-11-24T03:51:22.043Z,999.2
2017-11-24T03:52:23.569Z,999.3
2017-11-24T03:53:30.140Z,999.3
2017-11-24T03:54:31.740Z,999.4
2017-11-24T03:55:33.377Z,999.3
2017-11-24T03:56:34.922Z,999.3
2017-11-24T03:57:36.422Z,999.2
2017-11-24T03:58:38.022Z,999.2
2017-11-24T03:59:39.615Z,999.1
2017-11-24T04:00:42.163Z,999.1
2017-11-24T04:01:43.734Z,999.2
2017-11-24T04:02:56.008Z,999.1
2017-11-24T04:03:57.580Z,999.1
2017-11-24T04:05:00.108Z,999.1
2017-11-24T04:06:01.649Z,999.1
2017-11-24T04:07:03.175Z,999.1
2017-11-24T04:08:04.752Z,999.1
2017-11-24T04:09:06.247Z,999.2
2017-11-24T04:10:07.803Z,999.1
2017-11-24T04:11:09.338Z,999.1
2017-11-24T04:12:10.821Z,999.1
2017-11-24T04:13:12.525Z,999.0
2017-11-24T04:14:14.058Z,999.0
2017-11-24T04:15:15.643Z,999.0
2017-11-24T04:16:17.173Z,999.0
2017-11-24T04:17:18.836Z,999.1
2017-11-24T04:18:20.366Z,999.1
2017-11-24T04:19:21.876Z,999.0
2017-11-24T04:20:23.413Z,998.9
2017-11-24T04:21:24.970Z,998.9
2017-11-24T04:22:26.507Z,999.0
2017-11-24T04:23:29.143Z,998.9
2017-11-24T04:24:30.709Z,998.8
2017-11-24T04:25:32.464Z,998.9
2017-11-24T04:26:34.022Z,998.8
2017-11-24T04:27:35.589Z,998.8
2017-11-24T04:28:37.104Z,998.8
2017-11-24T04:29:38.688Z,998.8
2017-11-24T04:30:40.213Z,999.0
2017-11-24T04:31:41.713Z,999.0
2017-11-24T04:32:43.215Z,999.0
2017-11-24T04:33:44.851Z,999.0
2017-11-24T04:34:46.400Z,998.9
2017-11-24T04:35:48.030Z,999.0
2017-11-24T04:36:49.634Z,998.9
2017-11-24T04:37:51.270Z,998.9
2017-11-24T04:38:52.827Z,998.9
2017-11-24T04:39:55.571Z,998.8
2017-11-24T04:40:57.224Z,998.8
2017-11-24T04:41:58.879Z,998.8
2017-11-24T04:43:00.364Z,998.8
2017-11-24T04:44:02.075Z,998.8
2017-11-24T04:45:03.622Z,998.7
2017-11-24T04:46:05.215Z,998.7
2017-11-24T04:47:06.795Z,998.7
2017-11-24T04:48:08.300Z,998.7
2017-11-24T04:49:09.823Z,998.7
2017-11-24T04:50:12.403Z,998.6
2017-11-24T04:51:13.921Z,998.6
2017-11-24T04:52:27.498Z,998.6
2017-11-24T04:53:29.026Z,998.6
2017-11-24T04:54:30.691Z,998.6
2017-11-24T04:55:32.258Z,998.7
2017-11-24T04:56:33.862Z,998.6
2017-11-24T04:57:35.432Z,998.6
2017-11-24T04:58:38.028Z,998.6
2017-11-24T04:59:39.643Z,998.6
2017-11-24T05:00:41.292Z,998.5
2017-11-24T05:01:42.822Z,998.6
2017-11-24T05:02:44.463Z,998.5
2017-11-24T05:03:46.017Z,998.6
2017-11-24T05:04:47.599Z,998.6
2017-11-24T05:05:49.188Z,998.6
2017-11-24T05:06:50.758Z,998.6
2017-11-24T05:07:52.316Z,998.6
2017-11-24T05:08:53.883Z,998.6
2017-11-24T05:09:55.502Z,998.6
2017-11-24T05:10:57.132Z,998.5
2017-11-24T05:11:58.664Z,998.5
2017-11-24T05:13:00.236Z,998.6
2017-11-24T05:14:01.785Z,998.5
2017-11-24T05:15:03.363Z,998.6
2017-11-24T05:16:04.934Z,998.5
2017-11-24T05:17:06.539Z,998.5
2017-11-24T05:18:08.089Z,998.4
2017-11-24T05:19:09.721Z,998.4
2017-11-24T05:20:11.269Z,998.4
2017-11-24T05:21:12.903Z,998.4
2017-11-24T05:22:14.458Z,998.4
2017-11-24T05:23:16.042Z,998.5
2017-11-24T05:24:17.597Z,998.5
2017-11-24T05:25:19.210Z,998.5
2017-11-24T05:26:20.685Z,998.5
2017-11-24T05:27:22.246Z,998.5
2017-11-24T05:28:23.707Z,998.4
2017-11-24T05:29:25.349Z,998.4
2017-11-24T05:30:26.936Z,998.3
2017-11-24T05:31:28.504Z,998.3
2017-11-24T05:32:29.998Z,998.3
2017-11-24T05:33:31.666Z,998.2
2017-11-24T05:34:33.152Z,998.2
2017-11-24T05:35:34.694Z,998.2
2017-11-24T05:36:36.368Z,998.3
2017-11-24T05:37:38.086Z,998.4
2017-11-24T05:38:39.625Z,998.5
2017-11-24T05:39:41.184Z,998.5
2017-11-24T05:40:42.689Z,998.5
2017-11-24T05:41:44.249Z,998.5
2017-11-24T05:42:45.848Z,998.5
2017-11-24T05:43:47.488Z,998.5
2017-11-24T05:44:49.078Z,998.5
2017-11-24T05:45:50.752Z,998.5
2017-11-24T05:46:52.440Z,998.6
2017-11-24T05:47:54.205Z,998.6
2017-11-24T05:48:55.789Z,998.6
2017-11-24T05:49:57.508Z,998.7
2017-11-24T05:50:59.124Z,998.7
2017-11-24T05:52:00.707Z,998.6
2017-11-24T05:53:02.395Z,998.6
2017-11-24T05:54:04.112Z,998.6
2017-11-24T05:55:05.658Z,998.6
2017-11-24T05:56:07.144Z,998.6
2017-11-24T05:57:08.705Z,998.6
2017-11-24T05:58:10.301Z,998.6
2017-11-24T05:59:11.808Z,998.7
2017-11-24T06:00:13.322Z,998.6
2017-11-24T06:01:14.944Z,998.7
2017-11-24T06:02:16.546Z,998.7
2017-11-24T06:03:18.241Z,998.7
2017-11-24T06:04:20.039Z,998.7
2017-11-24T06:05:21.639Z,998.7
2017-11-24T06:06:23.410Z,998.7
2017-11-24T06:07:24.977Z,998.8
2017-11-24T06:08:26.896Z,998.8
2017-11-24T06:09:28.418Z,998.8
2017-11-24T06:10:30.004Z,998.7
2017-11-24T06:11:31.538Z,998.7
2017-11-24T06:12:33.114Z,998.7
2017-11-24T06:13:34.690Z,998.7
2017-11-24T06:14:36.370Z,998.8
2017-11-24T06:15:37.855Z,998.7
2017-11-24T06:16:39.479Z,998.8
2017-11-24T06:17:41.271Z,998.8
2017-11-24T06:18:42.792Z,998.7
2017-11-24T06:19:44.299Z,998.7
2017-11-24T06:20:45.976Z,998.7
2017-11-24T06:21:47.489Z,998.7
2017-11-24T06:22:49.335Z,998.7
2017-11-24T06:23:50.893Z,998.7
2017-11-24T06:24:53.557Z,998.7
2017-11-24T06:25:55.064Z,998.7
2017-11-24T06:26:56.613Z,998.7
2017-11-24T06:27:58.219Z,998.8
2017-11-24T06:28:59.798Z,998.8
2017-11-24T06:30:01.604Z,998.9
2017-11-24T06:31:03.647Z,998.9
2017-11-24T06:32:05.214Z,998.9
2017-11-24T06:33:06.864Z,998.8
2017-11-24T06:34:08.509Z,998.8
2017-11-24T06:35:10.226Z,998.8
2017-11-24T06:36:12.252Z,998.8
2017-11-24T06:37:13.837Z,998.9
2017-11-24T06:38:15.421Z,998.9
2017-11-24T06:39:17.025Z,998.9
2017-11-24T06:40:18.668Z,998.9
2017-11-24T06:41:21.281Z,998.9
2017-11-24T06:42:23.149Z,998.9
2017-11-24T06:43:26.796Z,998.9
2017-11-24T06:44:28.478Z,998.8
2017-11-24T06:45:30.266Z,998.8
2017-11-24T06:46:31.905Z,998.8
2017-11-24T06:47:33.615Z,998.9
2017-11-24T06:48:35.265Z,998.9
2017-11-24T06:49:36.995Z,998.9
2017-11-24T06:50:38.528Z,998.8
2017-11-24T06:51:41.147Z,998.9
2017-11-24T06:52:42.687Z,998.8
2017-11-24T06:53:45.457Z,998.8
2017-11-24T06:54:47.064Z,998.9
2017-11-24T06:55:48.686Z,998.9
2017-11-24T06:56:50.328Z,998.9
2017-11-24T06:57:51.897Z,998.8
2017-11-24T06:58:53.532Z,998.8
2017-11-24T06:59:55.166Z,998.8
2017-11-24T07:00:56.835Z,998.8
2017-11-24T07:01:58.535Z,998.8
2017-11-24T07:03:00.066Z,998.9
2017-11-24T07:04:01.672Z,998.8
2017-11-24T07:05:03.396Z,998.9
2017-11-24T07:06:05.092Z,998.8
2017-11-24T07:07:06.742Z,998.8
2017-11-24T07:08:08.358Z,998.8
2017-11-24T07:09:09.975Z,998.8
2017-11-24T07:10:11.628Z,998.9
2017-11-24T07:11:13.195Z,998.8
2017-11-24T07:12:14.763Z,998.9
2017-11-24T07:13:17.601Z,998.8
2017-11-24T07:14:20.075Z,998.8
2017-11-24T07:15:21.663Z,998.9
2017-11-24T07:16:23.333Z,998.9
2017-11-24T07:17:25.077Z,998.9
2017-11-24T07:18:26.626Z,998.8
2017-11-24T07:19:28.189Z,998.9
2017-11-24T07:20:29.763Z,998.8
2017-11-24T07:21:31.621Z,998.8
2017-11-24T07:22:34.404Z,998.9
2017-11-24T07:23:35.998Z,998.8
2017-11-24T07:24:37.591Z,998.9
2017-11-24T07:25:39.132Z,998.9
2017-11-24T07:26:41.152Z,998.9
2017-11-24T07:27:42.631Z,998.9
2017-11-24T07:28:44.206Z,998.9
2017-11-24T07:29:45.858Z,998.9
2017-11-24T07:30:47.553Z,998.9
2017-11-24T07:31:49.109Z,999.0
2017-11-24T07:32:50.801Z,999.0
2017-11-24T07:33:52.377Z,999.0
2017-11-24T07:34:53.877Z,999.0
2017-11-24T07:35:55.512Z,999.0
2017-11-24T07:36:57.203Z,999.0
2017-11-24T07:37:58.806Z,999.0
2017-11-24T07:39:00.465Z,999.0
2017-11-24T07:40:02.076Z,999.1
2017-11-24T07:41:03.720Z,999.0
2017-11-24T07:42:05.290Z,999.0
2017-11-24T07:43:09.019Z,999.0
2017-11-24T07:44:10.660Z,999.0
2017-11-24T07:45:14.455Z,999.0
2017-11-24T07:46:15.981Z,999.0
2017-11-24T07:47:17.731Z,999.0
2017-11-24T07:48:19.350Z,999.0
2017-11-24T07:49:20.901Z,999.0
2017-11-24T07:50:22.523Z,999.0
2017-11-24T07:51:24.132Z,999.0
2017-11-24T07:52:25.722Z,999.0
2017-11-24T07:53:27.424Z,999.0
2017-11-24T07:54:29.116Z,999.0
2017-11-24T07:55:30.769Z,999.0
2017-11-24T07:56:33.285Z,999.0
2017-11-24T07:57:34.893Z,999.0
2017-11-24T07:58:36.536Z,999.0
2017-11-24T07:59:38.254Z,999.0
2017-11-24T08:00:39.837Z,999.0
2017-11-24T08:01:41.562Z,999.0
2017-11-24T08:02:43.095Z,999.1
2017-11-24T08:03:44.876Z,999.1
2017-11-24T08:04:46.522Z,999.1
2017-11-24T08:05:48.124Z,999.1
2017-11-24T08:06:49.815Z,999.0
2017-11-24T08:07:51.351Z,999.0
2017-11-24T08:08:53.946Z,999.0
2017-11-24T08:09:55.600Z,999.0
2017-11-24T08:10:57.373Z,999.1
2017-11-24T08:11:59.025Z,999.1
2017-11-24T08:13:01.213Z,999.2
2017-11-24T08:14:02.710Z,999.1
2017-11-24T08:15:05.270Z,999.2
2017-11-24T08:16:06.783Z,999.1
2017-11-24T08:17:09.103Z,999.1
2017-11-24T08:18:10.706Z,999.1
2017-11-24T08:19:12.238Z,999.1
2017-11-24T08:20:14.876Z,999.1
2017-11-24T08:21:16.434Z,999.1
2017-11-24T08:22:18.040Z,999.0
2017-11-24T08:23:19.577Z,999.0
2017-11-24T08:24:21.073Z,999.1
2017-11-24T08:25:22.644Z,999.1
2017-11-24T08:26:24.218Z,999.1
2017-11-24T08:27:25.876Z,999.1
2017-11-24T08:28:27.499Z,999.0
2017-11-24T08:29:29.168Z,999.1
2017-11-24T08:30:30.780Z,999.0
2017-11-24T08:31:32.490Z,999.0
2017-11-24T08:32:34.477Z,999.1
2017-11-24T08:33:36.029Z,999.1
2017-11-24T08:34:38.096Z,999.0
2017-11-24T08:35:39.681Z,999.0
2017-11-24T08:36:41.474Z,999.0
2017-11-24T08:37:43.160Z,999.1
2017-11-24T08:38:44.770Z,999.0
2017-11-24T08:39:46.428Z,999.0
2017-11-24T08:40:48.215Z,999.0
2017-11-24T08:41:49.756Z,999.1
2017-11-24T08:42:51.308Z,999.1
2017-11-24T08:43:52.928Z,999.2
2017-11-24T08:44:54.686Z,999.1
2017-11-24T08:45:57.387Z,999.2
2017-11-24T08:46:58.929Z,999.2
2017-11-24T08:48:00.528Z,999.2
2017-11-24T08:49:02.436Z,999.3
2017-11-24T08:50:04.023Z,999.2
2017-11-24T08:51:05.746Z,999.2
2017-11-24T08:52:07.351Z,999.1
2017-11-24T08:53:09.002Z,999.2
2017-11-24T08:54:11.694Z,999.2
2017-11-24T08:55:13.336Z,999.1
2017-11-24T08:56:14.872Z,999.1
2017-11-24T08:57:16.388Z,999.2
2017-11-24T08:58:17.966Z,999.2
2017-11-24T08:59:19.714Z,999.2
2017-11-24T09:00:21.473Z,999.2
2017-11-24T09:01:23.101Z,999.2
2017-11-24T09:02:25.725Z,999.3
2017-11-24T09:03:27.411Z,999.2
2017-11-24T09:04:29.217Z,999.3
2017-11-24T09:05:30.839Z,999.3
2017-11-24T09:06:32.451Z,999.3
2017-11-24T09:07:34.106Z,999.3
2017-11-24T09:08:35.857Z,999.4
2017-11-24T09:09:37.630Z,999.4
2017-11-24T09:10:39.309Z,999.3
2017-11-24T09:11:41.022Z,999.3
2017-11-24T09:12:42.595Z,999.3
2017-11-24T09:13:44.211Z,999.4
2017-11-24T09:14:46.081Z,999.4
2017-11-24T09:15:47.721Z,999.4
2017-11-24T09:16:51.471Z,999.4
2017-11-24T09:17:53.008Z,999.3
2017-11-24T09:18:55.246Z,999.3
2017-11-24T09:19:56.872Z,999.3
2017-11-24T09:20:58.491Z,999.3
2017-11-24T09:22:00.048Z,999.3
2017-11-24T09:23:02.692Z,999.3
2017-11-24T09:24:04.263Z,999.3
2017-11-24T09:25:05.976Z,999.3
2017-11-24T09:26:07.738Z,999.3
2017-11-24T09:27:09.412Z,999.4
2017-11-24T09:28:12.235Z,999.4
2017-11-24T09:29:13.776Z,999.4
2017-11-24T09:30:15.648Z,999.4
2017-11-24T09:31:17.336Z,999.3
2017-11-24T09:32:18.989Z,999.3
2017-11-24T09:33:20.598Z,999.3
2017-11-24T09:34:22.943Z,999.4
2017-11-24T09:35:24.544Z,999.5
2017-11-24T09:36:26.223Z,999.5
2017-11-24T09:37:27.744Z,999.5
2017-11-24T09:38:29.380Z,999.5
2017-11-24T09:39:31.236Z,999.6
2017-11-24T09:40:32.713Z,999.6
2017-11-24T09:41:34.319Z,999.6
2017-11-24T09:42:36.167Z,999.6
2017-11-24T09:43:37.767Z,999.6
2017-11-24T09:44:39.296Z,999.6
2017-11-24T09:45:40.967Z,999.6
2017-11-24T09:46:42.761Z,999.5
2017-11-24T09:47:44.387Z,999.6
2017-11-24T09:48:46.062Z,999.7
2017-11-24T09:49:47.687Z,999.6
2017-11-24T09:50:49.365Z,999.7
2017-11-24T09:51:50.966Z,999.7
2017-11-24T09:52:52.760Z,999.6
2017-11-24T09:53:55.212Z,999.6
2017-11-24T09:54:56.978Z,999.7
2017-11-24T09:55:58.485Z,999.7
2017-11-24T09:57:00.169Z,999.8
2017-11-24T09:58:01.783Z,999.7
2017-11-24T09:59:03.577Z,999.6
2017-11-24T10:00:07.196Z,999.6
2017-11-24T10:01:08.748Z,999.6
2017-11-24T10:02:10.446Z,999.5
2017-11-24T10:03:12.184Z,999.5
2017-11-24T10:04:13.986Z,999.6
2017-11-24T10:05:15.487Z,999.5
2017-11-24T10:06:17.056Z,999.5
2017-11-24T10:07:18.642Z,999.5
2017-11-24T10:08:20.321Z,999.6
2017-11-24T10:09:21.864Z,999.5
2017-11-24T10:10:23.425Z,999.6
2017-11-24T10:11:25.066Z,999.6
2017-11-24T10:12:26.728Z,999.5
2017-11-24T10:13:28.434Z,999.5
2017-11-24T10:14:30.068Z,999.6
2017-11-24T10:15:31.819Z,999.5
2017-11-24T10:16:33.473Z,999.5
2017-11-24T10:17:35.056Z,999.4
2017-11-24T10:18:36.721Z,999.4
2017-11-24T10:19:38.480Z,999.4
2017-11-24T10:20:40.177Z,999.4
2017-11-24T10:21:43.010Z,999.4
2017-11-24T10:22:44.811Z,999.4
2017-11-24T10:23:46.484Z,999.3
2017-11-24T10:24:48.274Z,999.3
2017-11-24T10:25:49.953Z,999.3
2017-11-24T10:26:51.533Z,999.4
2017-11-24T10:27:53.062Z,999.3
2017-11-24T10:28:54.945Z,999.4
2017-11-24T10:29:56.637Z,999.4
2017-11-24T10:30:58.285Z,999.4
2017-11-24T10:32:00.006Z,999.4
2017-11-24T10:33:01.531Z,999.4
2017-11-24T10:34:03.470Z,999.4
2017-11-24T10:35:05.100Z,999.4
2017-11-24T10:36:06.869Z,999.3
2017-11-24T10:37:08.548Z,999.3
2017-11-24T10:38:10.195Z,999.3
2017-11-24T10:39:12.193Z,999.3
2017-11-24T10:40:13.949Z,999.3
2017-11-24T10:41:15.623Z,999.3
2017-11-24T10:42:17.577Z,999.3
2017-11-24T10:43:19.338Z,999.3
2017-11-24T10:44:20.931Z,999.3
2017-11-24T10:45:22.693Z,999.3
2017-11-24T10:46:24.351Z,999.3
2017-11-24T10:47:25.955Z,999.3
2017-11-24T10:48:27.672Z,999.2
2017-11-24T10:49:29.373Z,999.2
2017-11-24T10:50:31.046Z,999.3
2017-11-24T10:51:32.778Z,999.2
2017-11-24T10:52:34.480Z,999.2
2017-11-24T10:53:36.123Z,999.2
2017-11-24T10:54:37.945Z,999.2
2017-11-24T10:55:40.013Z,999.3
2017-11-24T10:56:41.683Z,999.3
2017-11-24T10:57:43.310Z,999.3
2017-11-24T10:58:45.019Z,999.1
2017-11-24T10:59:46.632Z,999.2
2017-11-24T11:00:49.253Z,999.2
2017-11-24T11:01:50.841Z,999.2
2017-11-24T11:02:52.594Z,999.2
2017-11-24T11:03:54.937Z,999.2
2017-11-24T11:04:56.569Z,999.2
2017-11-24T11:05:58.468Z,999.2
2017-11-24T11:07:00.064Z,999.3
2017-11-24T11:08:01.680Z,999.2
2017-11-24T11:09:03.476Z,999.3
2017-11-24T11:10:05.030Z,999.3
2017-11-24T11:11:06.769Z,999.3
2017-11-24T11:12:08.300Z,999.3
2017-11-24T11:13:09.915Z,999.3
2017-11-24T11:14:11.813Z,999.4
2017-11-24T11:15:13.377Z,999.4
2017-11-24T11:16:14.903Z,999.4
2017-11-24T11:17:16.684Z,999.4
2017-11-24T11:18:18.263Z,999.4
2017-11-24T11:19:19.866Z,999.3
2017-11-24T11:20:21.404Z,999.4
2017-11-24T11:21:23.055Z,999.4
2017-11-24T11:22:24.765Z,999.4
2017-11-24T11:23:26.389Z,999.3
2017-11-24T11:24:28.046Z,999.3
2017-11-24T11:25:29.770Z,999.2
2017-11-24T11:26:31.526Z,999.3
2017-11-24T11:27:33.201Z,999.2
2017-11-24T11:28:35.705Z,999.2
2017-11-24T11:29:37.286Z,999.2
2017-11-24T11:30:40.048Z,999.2
2017-11-24T11:31:41.565Z,999.2
2017-11-24T11:32:43.162Z,999.2
2017-11-24T11:33:44.881Z,999.3
2017-11-24T11:34:47.253Z,999.2
2017-11-24T11:35:48.778Z,999.3
2017-11-24T11:36:50.492Z,999.3
2017-11-24T11:37:53.230Z,999.3
2017-11-24T11:38:54.945Z,999.2
2017-11-24T11:39:56.527Z,999.3
2017-11-24T11:40:58.181Z,999.4
2017-11-24T11:41:59.771Z,999.5
2017-11-24T11:43:01.436Z,999.5
2017-11-24T11:44:02.987Z,999.5
2017-11-24T11:45:04.666Z,999.5
2017-11-24T11:46:06.376Z,999.5
2017-11-24T11:47:07.933Z,999.5
2017-11-24T11:48:09.517Z,999.5
2017-11-24T11:49:11.165Z,999.5
2017-11-24T11:50:12.845Z,999.6
2017-11-24T11:51:14.400Z,999.6
2017-11-24T11:52:15.954Z,999.6
2017-11-24T11:53:17.537Z,999.6
2017-11-24T11:54:19.058Z,999.6
2017-11-24T11:55:20.579Z,999.6
2017-11-24T11:56:22.108Z,999.6
2017-11-24T11:57:23.731Z,999.6
2017-11-24T11:58:25.258Z,999.6
2017-11-24T11:59:26.826Z,999.6
2017-11-24T12:00:28.406Z,999.6
2017-11-24T12:01:29.944Z,999.7
2017-11-24T12:02:31.508Z,999.7
2017-11-24T12:03:33.063Z,999.8
2017-11-24T12:04:34.713Z,999.8
2017-11-24T12:05:36.209Z,999.7
2017-11-24T12:06:38.266Z,999.8
2017-11-24T12:07:39.955Z,999.8
2017-11-24T12:08:41.462Z,999.8
2017-11-24T12:09:44.191Z,999.8
2017-11-24T12:10:45.776Z,999.7
2017-11-24T12:11:47.509Z,999.7
2017-11-24T12:12:49.072Z,999.6
2017-11-24T12:13:50.664Z,999.6
2017-11-24T12:14:52.279Z,999.7
2017-11-24T12:15:53.948Z,999.7
2017-11-24T12:16:55.800Z,999.8
2017-11-24T12:17:57.680Z,999.7
2017-11-24T12:18:59.409Z,999.8
2017-11-24T12:20:00.940Z,999.7
2017-11-24T12:21:02.602Z,999.7
2017-11-24T12:22:04.223Z,999.8
2017-11-24T12:23:05.795Z,999.8
2017-11-24T12:24:07.436Z,999.8
2017-11-24T12:25:09.104Z,999.8
2017-11-24T12:26:10.680Z,999.8
2017-11-24T12:27:13.350Z,999.8
2017-11-24T12:28:14.920Z,999.8
2017-11-24T12:29:16.468Z,999.8
2017-11-24T12:30:18.012Z,999.8
2017-11-24T12:31:19.497Z,999.8
2017-11-24T12:32:21.118Z,999.7
2017-11-24T12:33:23.066Z,999.8
2017-11-24T12:34:24.811Z,999.8
2017-11-24T12:35:26.571Z,999.8
2017-11-24T12:36:28.125Z,999.7
2017-11-24T12:37:30.360Z,999.8
2017-11-24T12:38:31.996Z,999.8
2017-11-24T12:39:33.640Z,999.7
2017-11-24T12:40:35.334Z,999.7
2017-11-24T12:41:36.927Z,999.7
2017-11-24T12:42:38.570Z,999.8
2017-11-24T12:43:40.270Z,999.8
2017-11-24T12:44:41.921Z,999.7
2017-11-24T12:45:43.924Z,999.8
2017-11-24T12:46:45.625Z,999.8
2017-11-24T12:47:48.428Z,999.8
2017-11-24T12:48:50.052Z,999.8
2017-11-24T12:49:51.928Z,999.8
2017-11-24T12:50:53.708Z,999.8
2017-11-24T12:51:55.520Z,999.8
2017-11-24T12:52:57.237Z,999.8
2017-11-24T12:53:59.150Z,999.7
2017-11-24T12:55:00.824Z,999.8
2017-11-24T12:56:02.428Z,999.8
2017-11-24T12:57:03.972Z,999.9
2017-11-24T12:58:05.523Z,999.8
2017-11-24T12:59:08.063Z,999.8
2017-11-24T13:00:09.767Z,999.8
2017-11-24T13:01:11.434Z,999.7
2017-11-24T13:02:13.074Z,999.8
2017-11-24T13:03:14.654Z,999.8
2017-11-24T13:04:16.301Z,999.8
2017-11-24T13:05:17.911Z,999.8
2017-11-24T13:06:33.960Z,999.8
2017-11-24T13:07:35.698Z,999.8
2017-11-24T13:08:37.272Z,999.8
2017-11-24T13:09:39.080Z,999.8
2017-11-24T13:10:40.793Z,999.8
2017-11-24T13:11:42.343Z,999.8